sensor_id;sensor_type;location;lat;lon;timestamp;temperature;humidity
67586;SHT31;55785;47.946;20.540;2024-03-23T00:55:29;6.90;86.30
67586;SHT31;55785;47.946;20.540;2024-03-23T00:57:54;6.95;86.20
67586;SHT31;55785;47.946;20.540;2024-03-23T01:00:20;6.99;86.20
67586;SHT31;55785;47.946;20.540;2024-03-23T01:02:45;6.86;86.69
67586;SHT31;55785;47.946;20.540;2024-03-23T01:05:10;6.76;86.90
67586;SHT31;55785;47.946;20.540;2024-03-23T01:07:36;6.76;87.16
67586;SHT31;55785;47.946;20.540;2024-03-23T01:10:01;6.73;87.12
67586;SHT31;55785;47.946;20.540;2024-03-23T01:12:27;6.78;87.13
67586;SHT31;55785;47.946;20.540;2024-03-23T01:14:52;6.72;87.13
67586;SHT31;55785;47.946;20.540;2024-03-23T01:17:17;6.79;86.95
67586;SHT31;55785;47.946;20.540;2024-03-23T01:19:43;6.85;86.62
67586;SHT31;55785;47.946;20.540;2024-03-23T01:22:08;6.80;86.73
67586;SHT31;55785;47.946;20.540;2024-03-23T01:24:36;6.80;86.98
67586;SHT31;55785;47.946;20.540;2024-03-23T01:27:01;6.72;87.40
67586;SHT31;55785;47.946;20.540;2024-03-23T01:29:26;6.73;87.35
67586;SHT31;55785;47.946;20.540;2024-03-23T01:31:52;6.69;87.45
67586;SHT31;55785;47.946;20.540;2024-03-23T01:34:17;6.69;87.40
67586;SHT31;55785;47.946;20.540;2024-03-23T01:36:42;6.72;87.19
67586;SHT31;55785;47.946;20.540;2024-03-23T01:39:08;6.67;87.44
67586;SHT31;55785;47.946;20.540;2024-03-23T01:41:33;6.67;87.56
67586;SHT31;55785;47.946;20.540;2024-03-23T01:44:04;6.73;87.73
67586;SHT31;55785;47.946;20.540;2024-03-23T01:46:30;6.82;87.78
67586;SHT31;55785;47.946;20.540;2024-03-23T01:48:56;6.86;87.54
67586;SHT31;55785;47.946;20.540;2024-03-23T01:51:21;6.89;87.68
67586;SHT31;55785;47.946;20.540;2024-03-23T01:53:46;6.88;87.87
67586;SHT31;55785;47.946;20.540;2024-03-23T01:56:12;6.86;87.75
67586;SHT31;55785;47.946;20.540;2024-03-23T01:58:37;6.88;87.54
67586;SHT31;55785;47.946;20.540;2024-03-23T02:01:02;6.93;87.49
67586;SHT31;55785;47.946;20.540;2024-03-23T02:03:28;6.96;87.21
67586;SHT31;55785;47.946;20.540;2024-03-23T02:05:54;7.03;87.16
67586;SHT31;55785;47.946;20.540;2024-03-23T02:08:22;7.16;87.41
67586;SHT31;55785;47.946;20.540;2024-03-23T02:10:51;7.07;86.97
67586;SHT31;55785;47.946;20.540;2024-03-23T02:13:18;7.09;86.76
67586;SHT31;55785;47.946;20.540;2024-03-23T02:15:43;7.17;86.92
67586;SHT31;55785;47.946;20.540;2024-03-23T02:18:09;7.26;86.48
67586;SHT31;55785;47.946;20.540;2024-03-23T02:20:37;7.31;86.07
67586;SHT31;55785;47.946;20.540;2024-03-23T02:23:12;7.27;86.10
67586;SHT31;55785;47.946;20.540;2024-03-23T02:25:38;7.27;86.17
67586;SHT31;55785;47.946;20.540;2024-03-23T02:28:03;7.28;86.36
67586;SHT31;55785;47.946;20.540;2024-03-23T02:30:29;7.30;86.65
67586;SHT31;55785;47.946;20.540;2024-03-23T02:32:54;7.28;86.71
67586;SHT31;55785;47.946;20.540;2024-03-23T02:35:19;7.31;86.53
67586;SHT31;55785;47.946;20.540;2024-03-23T02:37:46;7.31;86.38
67586;SHT31;55785;47.946;20.540;2024-03-23T02:40:12;7.34;86.41
67586;SHT31;55785;47.946;20.540;2024-03-23T02:42:37;7.28;86.41
67586;SHT31;55785;47.946;20.540;2024-03-23T02:45:03;7.28;86.41
67586;SHT31;55785;47.946;20.540;2024-03-23T02:47:28;7.30;86.63
67586;SHT31;55785;47.946;20.540;2024-03-23T02:49:54;7.37;86.52
67586;SHT31;55785;47.946;20.540;2024-03-23T02:52:19;7.37;86.57
67586;SHT31;55785;47.946;20.540;2024-03-23T02:54:44;7.41;86.35
67586;SHT31;55785;47.946;20.540;2024-03-23T02:57:10;7.38;86.64
67586;SHT31;55785;47.946;20.540;2024-03-23T02:59:35;7.38;86.58
67586;SHT31;55785;47.946;20.540;2024-03-23T03:02:01;7.32;86.50
67586;SHT31;55785;47.946;20.540;2024-03-23T03:04:26;7.35;86.36
67586;SHT31;55785;47.946;20.540;2024-03-23T03:06:52;7.34;86.45
67586;SHT31;55785;47.946;20.540;2024-03-23T03:09:17;7.37;86.47
67586;SHT31;55785;47.946;20.540;2024-03-23T03:11:42;7.37;86.23
67586;SHT31;55785;47.946;20.540;2024-03-23T03:14:08;7.34;86.38
67586;SHT31;55785;47.946;20.540;2024-03-23T03:16:33;7.30;86.28
67586;SHT31;55785;47.946;20.540;2024-03-23T03:18:59;7.26;86.12
67586;SHT31;55785;47.946;20.540;2024-03-23T03:21:24;7.23;85.99
67586;SHT31;55785;47.946;20.540;2024-03-23T03:23:49;7.24;86.05
67586;SHT31;55785;47.946;20.540;2024-03-23T03:26:15;7.20;85.84
67586;SHT31;55785;47.946;20.540;2024-03-23T03:28:40;7.26;85.83
67586;SHT31;55785;47.946;20.540;2024-03-23T03:31:05;7.23;85.63
67586;SHT31;55785;47.946;20.540;2024-03-23T03:33:31;7.30;85.78
67586;SHT31;55785;47.946;20.540;2024-03-23T03:35:56;7.34;85.72
67586;SHT31;55785;47.946;20.540;2024-03-23T03:38:21;7.34;85.44
67586;SHT31;55785;47.946;20.540;2024-03-23T03:40:47;7.35;85.17
67586;SHT31;55785;47.946;20.540;2024-03-23T03:43:12;7.31;84.97
67586;SHT31;55785;47.946;20.540;2024-03-23T03:45:38;7.40;84.99
67586;SHT31;55785;47.946;20.540;2024-03-23T03:48:03;7.46;85.26
67586;SHT31;55785;47.946;20.540;2024-03-23T03:50:29;7.48;85.19
67586;SHT31;55785;47.946;20.540;2024-03-23T03:52:54;7.50;84.81
67586;SHT31;55785;47.946;20.540;2024-03-23T03:55:19;7.57;84.84
67586;SHT31;55785;47.946;20.540;2024-03-23T03:57:45;7.57;84.83
67586;SHT31;55785;47.946;20.540;2024-03-23T04:00:10;7.59;84.20
67586;SHT31;55785;47.946;20.540;2024-03-23T04:02:39;7.64;84.05
67586;SHT31;55785;47.946;20.540;2024-03-23T04:05:05;7.67;83.79
67586;SHT31;55785;47.946;20.540;2024-03-23T04:07:30;7.72;83.87
67586;SHT31;55785;47.946;20.540;2024-03-23T04:09:56;7.74;83.50
67586;SHT31;55785;47.946;20.540;2024-03-23T04:12:21;7.78;83.71
67586;SHT31;55785;47.946;20.540;2024-03-23T04:14:46;7.81;83.20
67586;SHT31;55785;47.946;20.540;2024-03-23T04:17:12;7.78;83.45
67586;SHT31;55785;47.946;20.540;2024-03-23T04:19:37;7.82;83.57
67586;SHT31;55785;47.946;20.540;2024-03-23T04:22:03;7.82;83.43
67586;SHT31;55785;47.946;20.540;2024-03-23T04:24:28;7.83;82.88
67586;SHT31;55785;47.946;20.540;2024-03-23T04:26:53;7.88;82.88
67586;SHT31;55785;47.946;20.540;2024-03-23T04:29:19;7.86;83.85
67586;SHT31;55785;47.946;20.540;2024-03-23T04:31:44;7.85;83.81
67586;SHT31;55785;47.946;20.540;2024-03-23T04:34:09;7.77;83.41
67586;SHT31;55785;47.946;20.540;2024-03-23T04:36:35;7.77;83.22
67586;SHT31;55785;47.946;20.540;2024-03-23T04:39:00;7.78;83.18
67586;SHT31;55785;47.946;20.540;2024-03-23T04:41:26;7.81;83.71
67586;SHT31;55785;47.946;20.540;2024-03-23T04:43:51;7.82;84.06
67586;SHT31;55785;47.946;20.540;2024-03-23T04:46:17;7.81;84.11
67586;SHT31;55785;47.946;20.540;2024-03-23T04:48:42;7.81;84.01
67586;SHT31;55785;47.946;20.540;2024-03-23T04:51:07;7.79;83.52
67586;SHT31;55785;47.946;20.540;2024-03-23T04:53:33;7.74;83.26
67586;SHT31;55785;47.946;20.540;2024-03-23T04:55:58;7.78;82.88
67586;SHT31;55785;47.946;20.540;2024-03-23T04:58:23;7.78;82.81
67586;SHT31;55785;47.946;20.540;2024-03-23T05:00:56;7.81;82.66
67586;SHT31;55785;47.946;20.540;2024-03-23T05:03:21;7.79;82.71
67586;SHT31;55785;47.946;20.540;2024-03-23T05:05:50;7.82;83.02
67586;SHT31;55785;47.946;20.540;2024-03-23T05:08:16;7.82;83.47
67586;SHT31;55785;47.946;20.540;2024-03-23T05:10:42;7.89;83.08
67586;SHT31;55785;47.946;20.540;2024-03-23T05:13:08;7.88;82.94
67586;SHT31;55785;47.946;20.540;2024-03-23T05:15:33;7.83;82.63
67586;SHT31;55785;47.946;20.540;2024-03-23T05:17:58;7.92;82.48
67586;SHT31;55785;47.946;20.540;2024-03-23T05:20:24;7.98;82.64
67586;SHT31;55785;47.946;20.540;2024-03-23T05:22:50;7.98;82.62
67586;SHT31;55785;47.946;20.540;2024-03-23T05:25:15;8.00;82.41
67586;SHT31;55785;47.946;20.540;2024-03-23T05:27:40;8.03;82.89
67586;SHT31;55785;47.946;20.540;2024-03-23T05:30:06;8.03;82.54
67586;SHT31;55785;47.946;20.540;2024-03-23T05:32:32;8.12;82.51
67586;SHT31;55785;47.946;20.540;2024-03-23T05:34:57;8.12;82.07
67586;SHT31;55785;47.946;20.540;2024-03-23T05:37:23;8.13;82.19
67586;SHT31;55785;47.946;20.540;2024-03-23T05:39:49;8.14;82.37
67586;SHT31;55785;47.946;20.540;2024-03-23T05:42:14;8.12;82.67
67586;SHT31;55785;47.946;20.540;2024-03-23T05:44:39;8.17;82.36
67586;SHT31;55785;47.946;20.540;2024-03-23T05:47:05;8.19;82.25
67586;SHT31;55785;47.946;20.540;2024-03-23T05:49:31;8.23;82.14
67586;SHT31;55785;47.946;20.540;2024-03-23T05:51:56;8.32;82.09
67586;SHT31;55785;47.946;20.540;2024-03-23T05:54:21;8.37;82.03
67586;SHT31;55785;47.946;20.540;2024-03-23T05:56:47;8.43;81.86
67586;SHT31;55785;47.946;20.540;2024-03-23T05:59:12;8.58;82.84
67586;SHT31;55785;47.946;20.540;2024-03-23T06:01:37;8.74;81.65
67586;SHT31;55785;47.946;20.540;2024-03-23T06:04:03;8.88;81.04
67586;SHT31;55785;47.946;20.540;2024-03-23T06:06:28;9.02;80.34
67586;SHT31;55785;47.946;20.540;2024-03-23T06:08:54;9.16;81.01
67586;SHT31;55785;47.946;20.540;2024-03-23T06:11:19;9.33;81.74
67586;SHT31;55785;47.946;20.540;2024-03-23T06:13:44;9.47;81.91
67586;SHT31;55785;47.946;20.540;2024-03-23T06:16:10;9.51;81.76
67586;SHT31;55785;47.946;20.540;2024-03-23T06:18:35;9.55;81.00
67586;SHT31;55785;47.946;20.540;2024-03-23T06:21:00;9.60;80.17
67586;SHT31;55785;47.946;20.540;2024-03-23T06:23:26;9.69;80.15
67586;SHT31;55785;47.946;20.540;2024-03-23T06:25:51;9.74;78.49
67586;SHT31;55785;47.946;20.540;2024-03-23T06:28:16;9.77;77.93
67586;SHT31;55785;47.946;20.540;2024-03-23T06:30:42;9.88;78.48
67586;SHT31;55785;47.946;20.540;2024-03-23T06:33:07;9.95;78.24
67586;SHT31;55785;47.946;20.540;2024-03-23T06:35:32;10.05;78.89
67586;SHT31;55785;47.946;20.540;2024-03-23T06:37:58;10.15;79.66
67586;SHT31;55785;47.946;20.540;2024-03-23T06:40:23;10.29;79.28
67586;SHT31;55785;47.946;20.540;2024-03-23T06:42:49;10.39;78.70
67586;SHT31;55785;47.946;20.540;2024-03-23T06:45:14;10.53;77.76
67586;SHT31;55785;47.946;20.540;2024-03-23T06:47:40;10.61;75.57
67586;SHT31;55785;47.946;20.540;2024-03-23T06:50:05;10.67;73.08
67586;SHT31;55785;47.946;20.540;2024-03-23T06:52:31;10.83;72.91
67586;SHT31;55785;47.946;20.540;2024-03-23T06:54:57;10.94;75.14
67586;SHT31;55785;47.946;20.540;2024-03-23T06:57:22;11.08;75.20
67586;SHT31;55785;47.946;20.540;2024-03-23T06:59:48;11.08;74.00
67586;SHT31;55785;47.946;20.540;2024-03-23T07:02:13;11.17;72.86
67586;SHT31;55785;47.946;20.540;2024-03-23T07:04:39;11.14;73.90
67586;SHT31;55785;47.946;20.540;2024-03-23T07:07:04;11.14;72.70
67586;SHT31;55785;47.946;20.540;2024-03-23T07:09:30;11.21;72.44
67586;SHT31;55785;47.946;20.540;2024-03-23T07:11:56;11.14;73.04
67586;SHT31;55785;47.946;20.540;2024-03-23T07:14:22;11.14;71.56
67586;SHT31;55785;47.946;20.540;2024-03-23T07:16:49;11.25;71.52
67586;SHT31;55785;47.946;20.540;2024-03-23T07:19:15;11.29;72.73
67586;SHT31;55785;47.946;20.540;2024-03-23T07:21:40;11.35;72.32
67586;SHT31;55785;47.946;20.540;2024-03-23T07:24:06;11.40;70.08
67586;SHT31;55785;47.946;20.540;2024-03-23T07:26:31;11.51;70.02
67586;SHT31;55785;47.946;20.540;2024-03-23T07:28:57;11.54;71.26
67586;SHT31;55785;47.946;20.540;2024-03-23T07:31:22;11.55;69.87
67586;SHT31;55785;47.946;20.540;2024-03-23T07:33:48;11.61;72.08
67586;SHT31;55785;47.946;20.540;2024-03-23T07:36:14;11.66;74.93
67586;SHT31;55785;47.946;20.540;2024-03-23T07:38:43;11.77;73.66
67586;SHT31;55785;47.946;20.540;2024-03-23T07:41:10;11.83;73.28
67586;SHT31;55785;47.946;20.540;2024-03-23T07:43:37;11.89;71.54
67586;SHT31;55785;47.946;20.540;2024-03-23T07:46:02;12.07;71.15
67586;SHT31;55785;47.946;20.540;2024-03-23T07:48:28;12.16;69.67
67586;SHT31;55785;47.946;20.540;2024-03-23T07:51:03;12.25;69.71
67586;SHT31;55785;47.946;20.540;2024-03-23T07:53:30;12.33;68.63
67586;SHT31;55785;47.946;20.540;2024-03-23T07:56:01;12.51;71.53
67586;SHT31;55785;47.946;20.540;2024-03-23T07:58:27;12.61;67.14
67586;SHT31;55785;47.946;20.540;2024-03-23T08:00:54;12.68;68.46
67586;SHT31;55785;47.946;20.540;2024-03-23T08:03:19;12.76;68.13
67586;SHT31;55785;47.946;20.540;2024-03-23T08:05:45;12.75;70.39
67586;SHT31;55785;47.946;20.540;2024-03-23T08:08:10;12.75;69.57
67586;SHT31;55785;47.946;20.540;2024-03-23T08:10:37;12.73;67.42
67586;SHT31;55785;47.946;20.540;2024-03-23T08:13:02;12.68;68.96
67586;SHT31;55785;47.946;20.540;2024-03-23T08:15:30;12.73;68.92
67586;SHT31;55785;47.946;20.540;2024-03-23T08:17:55;12.68;69.32
67586;SHT31;55785;47.946;20.540;2024-03-23T08:20:21;12.52;69.77
67586;SHT31;55785;47.946;20.540;2024-03-23T08:22:46;12.35;70.95
67586;SHT31;55785;47.946;20.540;2024-03-23T08:25:12;12.38;71.83
67586;SHT31;55785;47.946;20.540;2024-03-23T08:27:37;12.38;70.65
67586;SHT31;55785;47.946;20.540;2024-03-23T08:30:02;12.34;71.43
67586;SHT31;55785;47.946;20.540;2024-03-23T08:32:28;12.40;71.26
67586;SHT31;55785;47.946;20.540;2024-03-23T08:34:53;12.46;70.96
67586;SHT31;55785;47.946;20.540;2024-03-23T08:37:19;12.51;71.65
67586;SHT31;55785;47.946;20.540;2024-03-23T08:39:44;12.61;71.66
67586;SHT31;55785;47.946;20.540;2024-03-23T08:42:09;12.72;71.33
67586;SHT31;55785;47.946;20.540;2024-03-23T08:44:35;12.82;69.40
67586;SHT31;55785;47.946;20.540;2024-03-23T08:47:00;13.00;69.01
67586;SHT31;55785;47.946;20.540;2024-03-23T08:49:25;13.30;68.40
67586;SHT31;55785;47.946;20.540;2024-03-23T08:51:51;13.50;67.68
67586;SHT31;55785;47.946;20.540;2024-03-23T08:54:16;13.55;65.95
67586;SHT31;55785;47.946;20.540;2024-03-23T08:56:41;13.67;66.55
67586;SHT31;55785;47.946;20.540;2024-03-23T08:59:07;13.78;67.05
67586;SHT31;55785;47.946;20.540;2024-03-23T09:01:32;13.85;65.92
67586;SHT31;55785;47.946;20.540;2024-03-23T09:03:57;14.16;65.28
67586;SHT31;55785;47.946;20.540;2024-03-23T09:06:23;14.60;69.46
67586;SHT31;55785;47.946;20.540;2024-03-23T09:08:48;15.02;67.05
67586;SHT31;55785;47.946;20.540;2024-03-23T09:11:13;15.09;63.42
67586;SHT31;55785;47.946;20.540;2024-03-23T09:13:39;15.40;64.39
67586;SHT31;55785;47.946;20.540;2024-03-23T09:16:05;15.46;61.45
67586;SHT31;55785;47.946;20.540;2024-03-23T09:18:35;15.22;64.23
67586;SHT31;55785;47.946;20.540;2024-03-23T09:21:04;15.18;63.72
67586;SHT31;55785;47.946;20.540;2024-03-23T09:23:35;14.83;63.46
67586;SHT31;55785;47.946;20.540;2024-03-23T09:26:04;14.87;64.76
67586;SHT31;55785;47.946;20.540;2024-03-23T09:28:30;14.99;63.40
67586;SHT31;55785;47.946;20.540;2024-03-23T09:30:55;15.02;64.83
67586;SHT31;55785;47.946;20.540;2024-03-23T09:33:20;14.78;65.39
67586;SHT31;55785;47.946;20.540;2024-03-23T09:35:46;14.70;65.50
67586;SHT31;55785;47.946;20.540;2024-03-23T09:38:11;15.04;67.28
67586;SHT31;55785;47.946;20.540;2024-03-23T09:40:40;15.43;68.53
67586;SHT31;55785;47.946;20.540;2024-03-23T09:43:06;15.59;65.17
67586;SHT31;55785;47.946;20.540;2024-03-23T09:45:34;15.74;68.24
67586;SHT31;55785;47.946;20.540;2024-03-23T09:48:01;15.49;64.37
67586;SHT31;55785;47.946;20.540;2024-03-23T09:50:26;15.21;64.66
67586;SHT31;55785;47.946;20.540;2024-03-23T09:52:52;14.81;66.17
67586;SHT31;55785;47.946;20.540;2024-03-23T09:55:17;14.76;67.83
67586;SHT31;55785;47.946;20.540;2024-03-23T09:57:43;14.60;65.94
67586;SHT31;55785;47.946;20.540;2024-03-23T10:00:09;14.46;66.24
67586;SHT31;55785;47.946;20.540;2024-03-23T10:02:35;14.50;67.13
67586;SHT31;55785;47.946;20.540;2024-03-23T10:05:00;14.53;67.89
67586;SHT31;55785;47.946;20.540;2024-03-23T10:07:26;14.70;67.58
67586;SHT31;55785;47.946;20.540;2024-03-23T10:09:51;14.92;68.90
67586;SHT31;55785;47.946;20.540;2024-03-23T10:12:18;15.06;67.43
67586;SHT31;55785;47.946;20.540;2024-03-23T10:14:44;14.84;66.65
67586;SHT31;55785;47.946;20.540;2024-03-23T10:19:40;15.12;66.91
67586;SHT31;55785;47.946;20.540;2024-03-23T10:22:06;15.21;66.37
67586;SHT31;55785;47.946;20.540;2024-03-23T10:24:32;15.32;65.48
67586;SHT31;55785;47.946;20.540;2024-03-23T10:26:57;15.34;64.22
67586;SHT31;55785;47.946;20.540;2024-03-23T10:29:23;15.42;66.98
67586;SHT31;55785;47.946;20.540;2024-03-23T10:31:48;15.46;64.43
67586;SHT31;55785;47.946;20.540;2024-03-23T10:34:14;15.56;65.65
67586;SHT31;55785;47.946;20.540;2024-03-23T10:36:40;15.66;65.80
67586;SHT31;55785;47.946;20.540;2024-03-23T10:39:07;15.82;65.64
67586;SHT31;55785;47.946;20.540;2024-03-23T10:41:33;15.89;64.86
67586;SHT31;55785;47.946;20.540;2024-03-23T10:43:58;15.90;63.74
67586;SHT31;55785;47.946;20.540;2024-03-23T10:46:24;15.96;64.46
67586;SHT31;55785;47.946;20.540;2024-03-23T10:48:50;15.96;64.23
67586;SHT31;55785;47.946;20.540;2024-03-23T10:51:15;15.96;65.07
67586;SHT31;55785;47.946;20.540;2024-03-23T10:53:41;15.97;64.58
67586;SHT31;55785;47.946;20.540;2024-03-23T10:56:07;16.01;64.97
67586;SHT31;55785;47.946;20.540;2024-03-23T10:58:34;16.15;65.44
67586;SHT31;55785;47.946;20.540;2024-03-23T11:01:02;16.22;65.26
67586;SHT31;55785;47.946;20.540;2024-03-23T11:03:34;16.35;64.97
67586;SHT31;55785;47.946;20.540;2024-03-23T11:06:00;16.41;65.47
67586;SHT31;55785;47.946;20.540;2024-03-23T11:08:46;16.40;64.18
67586;SHT31;55785;47.946;20.540;2024-03-23T11:11:18;16.47;65.14
67586;SHT31;55785;47.946;20.540;2024-03-23T11:13:44;16.48;65.31
67586;SHT31;55785;47.946;20.540;2024-03-23T11:16:27;16.51;66.90
67586;SHT31;55785;47.946;20.540;2024-03-23T11:18:52;16.51;66.52
67586;SHT31;55785;47.946;20.540;2024-03-23T11:21:53;16.58;64.95
67586;SHT31;55785;47.946;20.540;2024-03-23T11:24:18;16.61;64.53
67586;SHT31;55785;47.946;20.540;2024-03-23T11:26:44;16.68;62.79
67586;SHT31;55785;47.946;20.540;2024-03-23T11:29:13;16.68;61.74
67586;SHT31;55785;47.946;20.540;2024-03-23T11:31:45;16.84;60.79
67586;SHT31;55785;47.946;20.540;2024-03-23T11:34:11;17.02;61.21
67586;SHT31;55785;47.946;20.540;2024-03-23T11:36:37;16.96;59.89
67586;SHT31;55785;47.946;20.540;2024-03-23T11:39:15;17.00;59.23
67586;SHT31;55785;47.946;20.540;2024-03-23T11:41:48;17.20;61.95
67586;SHT31;55785;47.946;20.540;2024-03-23T11:44:32;17.26;60.65
67586;SHT31;55785;47.946;20.540;2024-03-23T11:47:08;17.14;60.61
67586;SHT31;55785;47.946;20.540;2024-03-23T11:49:33;17.20;59.04
67586;SHT31;55785;47.946;20.540;2024-03-23T11:52:00;17.09;56.49
67586;SHT31;55785;47.946;20.540;2024-03-23T11:54:26;16.99;57.06
67586;SHT31;55785;47.946;20.540;2024-03-23T11:56:59;16.97;57.79
67586;SHT31;55785;47.946;20.540;2024-03-23T11:59:38;17.09;56.97
67586;SHT31;55785;47.946;20.540;2024-03-23T12:02:11;17.17;57.05
67586;SHT31;55785;47.946;20.540;2024-03-23T12:04:40;17.20;56.39
67586;SHT31;55785;47.946;20.540;2024-03-23T12:07:24;17.31;56.15
67586;SHT31;55785;47.946;20.540;2024-03-23T12:10:05;17.24;56.51
67586;SHT31;55785;47.946;20.540;2024-03-23T12:12:31;17.24;54.86
67586;SHT31;55785;47.946;20.540;2024-03-23T12:15:07;17.34;55.13
67586;SHT31;55785;47.946;20.540;2024-03-23T12:17:33;17.27;54.85
67586;SHT31;55785;47.946;20.540;2024-03-23T12:19:58;17.23;55.09
67586;SHT31;55785;47.946;20.540;2024-03-23T12:22:24;17.24;55.51
67586;SHT31;55785;47.946;20.540;2024-03-23T12:24:50;17.26;56.68
67586;SHT31;55785;47.946;20.540;2024-03-23T12:27:15;17.16;56.26
67586;SHT31;55785;47.946;20.540;2024-03-23T12:29:41;17.16;55.21
67586;SHT31;55785;47.946;20.540;2024-03-23T12:32:07;17.04;54.91
67586;SHT31;55785;47.946;20.540;2024-03-23T12:34:32;17.02;54.52
67586;SHT31;55785;47.946;20.540;2024-03-23T12:36:58;16.90;55.66
67586;SHT31;55785;47.946;20.540;2024-03-23T12:39:23;16.84;55.24
67586;SHT31;55785;47.946;20.540;2024-03-23T12:41:49;16.84;55.33
67586;SHT31;55785;47.946;20.540;2024-03-23T12:44:15;16.84;57.30
67586;SHT31;55785;47.946;20.540;2024-03-23T12:46:41;16.82;56.81
67586;SHT31;55785;47.946;20.540;2024-03-23T12:49:07;16.87;56.53
67586;SHT31;55785;47.946;20.540;2024-03-23T12:51:32;16.87;56.91
67586;SHT31;55785;47.946;20.540;2024-03-23T12:53:58;16.84;54.81
67586;SHT31;55785;47.946;20.540;2024-03-23T12:56:23;16.82;55.98
67586;SHT31;55785;47.946;20.540;2024-03-23T12:58:49;16.83;54.94
67586;SHT31;55785;47.946;20.540;2024-03-23T13:01:14;16.83;54.61
67586;SHT31;55785;47.946;20.540;2024-03-23T13:03:39;16.86;54.71
67586;SHT31;55785;47.946;20.540;2024-03-23T13:06:05;16.86;54.25
67586;SHT31;55785;47.946;20.540;2024-03-23T13:08:30;16.80;54.92
67586;SHT31;55785;47.946;20.540;2024-03-23T13:10:56;16.80;53.69
67586;SHT31;55785;47.946;20.540;2024-03-23T13:13:21;16.84;53.60
67586;SHT31;55785;47.946;20.540;2024-03-23T13:15:50;16.89;54.47
67586;SHT31;55785;47.946;20.540;2024-03-23T13:18:15;16.89;54.48
67586;SHT31;55785;47.946;20.540;2024-03-23T13:20:41;16.87;54.26
67586;SHT31;55785;47.946;20.540;2024-03-23T13:23:06;16.82;53.76
67586;SHT31;55785;47.946;20.540;2024-03-23T13:25:31;16.90;55.03
67586;SHT31;55785;47.946;20.540;2024-03-23T13:27:57;16.91;53.17
67586;SHT31;55785;47.946;20.540;2024-03-23T13:30:22;16.87;53.33
67586;SHT31;55785;47.946;20.540;2024-03-23T13:32:48;16.94;54.65
67586;SHT31;55785;47.946;20.540;2024-03-23T13:35:13;16.96;53.38
67586;SHT31;55785;47.946;20.540;2024-03-23T13:37:38;16.93;53.57
67586;SHT31;55785;47.946;20.540;2024-03-23T13:40:05;16.90;53.76
67586;SHT31;55785;47.946;20.540;2024-03-23T13:42:31;16.93;54.37
67586;SHT31;55785;47.946;20.540;2024-03-23T13:44:56;16.89;52.53
67586;SHT31;55785;47.946;20.540;2024-03-23T13:47:21;16.86;54.05
67586;SHT31;55785;47.946;20.540;2024-03-23T13:49:47;16.89;53.85
67586;SHT31;55785;47.946;20.540;2024-03-23T13:52:12;16.84;54.66
67586;SHT31;55785;47.946;20.540;2024-03-23T13:54:37;16.83;54.88
67586;SHT31;55785;47.946;20.540;2024-03-23T13:57:03;16.86;55.02
67586;SHT31;55785;47.946;20.540;2024-03-23T13:59:29;16.86;53.90
67586;SHT31;55785;47.946;20.540;2024-03-23T14:01:55;16.84;56.10
67586;SHT31;55785;47.946;20.540;2024-03-23T14:04:20;16.87;55.40
67586;SHT31;55785;47.946;20.540;2024-03-23T14:06:46;16.84;54.86
67586;SHT31;55785;47.946;20.540;2024-03-23T14:09:12;16.79;54.85
67586;SHT31;55785;47.946;20.540;2024-03-23T14:11:38;16.84;55.26
67586;SHT31;55785;47.946;20.540;2024-03-23T14:14:03;16.83;54.64
67586;SHT31;55785;47.946;20.540;2024-03-23T14:16:30;16.82;54.72
67586;SHT31;55785;47.946;20.540;2024-03-23T14:18:55;16.75;53.71
67586;SHT31;55785;47.946;20.540;2024-03-23T14:21:20;16.82;54.81
67586;SHT31;55785;47.946;20.540;2024-03-23T14:23:46;16.87;54.38
67586;SHT31;55785;47.946;20.540;2024-03-23T14:26:11;16.86;54.65
67586;SHT31;55785;47.946;20.540;2024-03-23T14:28:36;16.84;55.10
67586;SHT31;55785;47.946;20.540;2024-03-23T14:31:02;16.84;55.36
67586;SHT31;55785;47.946;20.540;2024-03-23T14:33:27;16.90;55.26
67586;SHT31;55785;47.946;20.540;2024-03-23T14:35:53;16.86;54.66
67586;SHT31;55785;47.946;20.540;2024-03-23T14:38:19;16.90;54.64
67586;SHT31;55785;47.946;20.540;2024-03-23T14:40:45;16.91;55.22
67586;SHT31;55785;47.946;20.540;2024-03-23T14:43:10;16.84;54.75
67586;SHT31;55785;47.946;20.540;2024-03-23T14:45:36;16.91;55.61
67586;SHT31;55785;47.946;20.540;2024-03-23T14:48:01;16.89;55.69
67586;SHT31;55785;47.946;20.540;2024-03-23T14:50:27;16.86;55.17
67586;SHT31;55785;47.946;20.540;2024-03-23T14:52:52;16.89;55.02
67586;SHT31;55785;47.946;20.540;2024-03-23T14:55:18;16.86;54.88
67586;SHT31;55785;47.946;20.540;2024-03-23T14:57:43;16.89;56.63
67586;SHT31;55785;47.946;20.540;2024-03-23T15:00:09;16.83;57.29
67586;SHT31;55785;47.946;20.540;2024-03-23T15:02:35;16.70;59.53
67586;SHT31;55785;47.946;20.540;2024-03-23T15:05:01;16.63;57.56
67586;SHT31;55785;47.946;20.540;2024-03-23T15:07:26;16.61;58.51
67586;SHT31;55785;47.946;20.540;2024-03-23T15:09:51;16.52;57.67
67586;SHT31;55785;47.946;20.540;2024-03-23T15:12:17;16.42;58.10
67586;SHT31;55785;47.946;20.540;2024-03-23T15:14:42;16.41;59.89
67586;SHT31;55785;47.946;20.540;2024-03-23T15:17:07;16.41;60.22
67586;SHT31;55785;47.946;20.540;2024-03-23T15:19:33;16.29;59.54
67586;SHT31;55785;47.946;20.540;2024-03-23T15:21:58;16.29;60.65
67586;SHT31;55785;47.946;20.540;2024-03-23T15:24:23;16.26;60.74
67586;SHT31;55785;47.946;20.540;2024-03-23T15:26:49;16.24;59.80
67586;SHT31;55785;47.946;20.540;2024-03-23T15:29:14;16.21;61.09
67586;SHT31;55785;47.946;20.540;2024-03-23T15:31:39;16.24;60.26
67586;SHT31;55785;47.946;20.540;2024-03-23T15:34:05;16.12;60.94
67586;SHT31;55785;47.946;20.540;2024-03-23T15:36:32;16.05;61.95
67586;SHT31;55785;47.946;20.540;2024-03-23T15:38:57;16.03;61.54
67586;SHT31;55785;47.946;20.540;2024-03-23T15:41:22;16.01;62.81
67586;SHT31;55785;47.946;20.540;2024-03-23T15:43:48;15.93;63.10
67586;SHT31;55785;47.946;20.540;2024-03-23T15:46:13;15.91;62.51
67586;SHT31;55785;47.946;20.540;2024-03-23T15:48:38;15.89;62.68
67586;SHT31;55785;47.946;20.540;2024-03-23T15:51:04;15.90;63.04
67586;SHT31;55785;47.946;20.540;2024-03-23T15:53:30;15.82;63.28
67586;SHT31;55785;47.946;20.540;2024-03-23T15:55:56;15.82;63.15
67586;SHT31;55785;47.946;20.540;2024-03-23T15:58:23;15.70;65.50
67586;SHT31;55785;47.946;20.540;2024-03-23T16:01:02;15.66;64.65
67586;SHT31;55785;47.946;20.540;2024-03-23T16:03:28;15.59;64.87
67586;SHT31;55785;47.946;20.540;2024-03-23T16:05:55;15.60;65.88
67586;SHT31;55785;47.946;20.540;2024-03-23T16:08:21;15.50;65.78
67586;SHT31;55785;47.946;20.540;2024-03-23T16:10:47;15.42;65.96
67586;SHT31;55785;47.946;20.540;2024-03-23T16:13:12;15.40;65.92